Sunday, November 19, 2017, 11:16 PM EST
Back to Local

KHGR, Hagerstown Regional Airport

Location: Hagerstown, MD, United States Lat: 39.7
Local Time: 11:16 PM EST ( 4:16 GMT) Lon: -77.733
Time Zone: US/Eastern Elev: 705 ft

Show me the last for .
Show Decoded

2017-11-19 22:53 METAR KHGR 200353Z AUTO 32012KT 10SM SCT044 SCT055 03/M02 A2993 RMK AO2 PK WND
                 27026/0330 SLP149 T00281022 TSNO =
2017-11-19 21:53 METAR KHGR 200253Z 29013KT 10SM FEW047 SCT070 04/M03 A2990 RMK AO2 PK WND
                 29029/0207 SLP139 T00391033 51019 =
2017-11-19 20:53 METAR KHGR 200153Z 29012KT 10SM BKN040 BKN049 OVC060 05/M03 A2989 RMK AO2 SLP134
                 T00501028 =
2017-11-19 19:53 METAR KHGR 200053Z 28014KT 10SM BKN080 04/M03 A2986 RMK AO2 SLP125 T00441028 =
2017-11-19 18:53 METAR KHGR 192353Z 29017G26KT 10SM SCT050 OVC070 06/M03 A2985 RMK AO2 PK WND
                 27026/2345 SLP120 T00561028 10072 20056 53021 =
2017-11-19 17:53 METAR KHGR 192253Z 29015KT 10SM OVC060 06/M04 A2983 RMK AO2 SLP114 T00561039 =
2017-11-19 16:53 METAR KHGR 192153Z 28012KT 10SM SCT060 BKN075 06/M04 A2980 RMK AO2 SLP104
                 T00561039 =
2017-11-19 15:53 METAR KHGR 192053Z 27015G21KT 10SM OVC050 06/M04 A2978 RMK AO2 PK WND 29028/2004
                 SLP097 T00611039 53016 =
2017-11-19 14:53 METAR KHGR 191953Z 30018G27KT 10SM OVC048 07/M03 A2976 RMK AO2 PK WND 28028/1927
                 SLP087 T00671033 =
2017-11-19 13:53 METAR KHGR 191853Z 30023G29KT 10SM OVC046 07/M03 A2974 RMK AO2 PK WND 30029/1849
                 SLP080 T00721033 =
2017-11-19 12:53 METAR KHGR 191753Z 29015G23KT 10SM OVC044 07/M02 A2973 RMK AO2 PK WND 29032/1703
                 SLP079 T00721017 10094 20067 51021 =
2017-11-19 11:53 METAR KHGR 191653Z 30025G33KT 10SM BKN045 08/M02 A2972 RMK AO2 PK WND 31034/1640
                 SLP076 T00831022 =
2017-11-19 10:53 METAR KHGR 191553Z 29015G21KT 10SM SCT041 BKN050 08/01 A2971 RMK AO2 PK WND
                 29030/1455 SLP073 T00830006 =
2017-11-19 09:53 METAR KHGR 191453Z 28020G26KT 10SM OVC043 08/01 A2967 RMK AO2 PK WND 28026/1449
                 SLP060 T00780006 51033 =
2017-11-19 08:53 METAR KHGR 191353Z 29014G24KT 10SM BKN040 OVC049 07/01 A2965 RMK AO2 PK WND
                 29032/1320 SLP053 T00720006 =
2017-11-19 07:53 METAR KHGR 191253Z 28014G23KT 10SM OVC042 07/00 A2961 RMK AO2 PK WND 28029/1155
                 SLP040 T00720000 =
2017-11-19 06:53 METAR KHGR 191153Z 28020G32KT 10SM OVC043 07/01 A2957 RMK AO2 PK WND 29035/1125
                 SLP026 60001 70071 T00720006 10150 20072 51070 =
2017-11-19 05:53 METAR KHGR 191053Z AUTO 28019G32KT 10SM SCT042 07/01 A2951 RMK AO2 PK WND
                 28035/1029 PRESRR SLP006 T00720006 TSNO =
2017-11-19 04:53 METAR KHGR 190953Z AUTO 28027G35KT 10SM BKN043 08/02 A2944 RMK AO2 PK WND
                 28038/0936 SLP983 T00830017 TSNO =
2017-11-19 03:53 METAR KHGR 190853Z AUTO 27020G35KT 10SM SCT033 12/06 A2936 RMK AO2 PK WND
                 27044/0834 RAE11 PRESRR SLP953 P0000 60001 T01170056 53020 TSNO =
2017-11-19 02:53 METAR KHGR 190753Z AUTO 23009KT 7SM -RA FEW041 BKN049 OVC075 14/11 A2928 RMK AO2
                 RAB30 SLP926 P0001 T01390106 TSNO =
2017-11-19 01:53 METAR KHGR 190653Z AUTO 18018KT 10SM SCT090 SCT110 14/11 A2923 RMK AO2 RAE39
                 SLP909 P0000 T01390106 TSNO =
2017-11-19 00:53 METAR KHGR 190553Z AUTO 17017KT 9SM -RA FEW050 BKN080 OVC090 13/10 A2930 RMK AO2
                 SLP932 P0005 60007 T01330100 10139 20044 56024 TSNO =
2017-11-18 23:53 METAR KHGR 190453Z AUTO 17012KT 9SM -RA OVC085 13/09 A2932 RMK AO2 RAB12 SLP939
                 P0002 T01330094 401330022 TSNO =

Support USWX by starting your Amazon purchase here.